CSN252 VDPP-ZJSY
Flight info
| Callsign | CSN252 |
|---|---|
| Flight time | 1h 22m |
| Altitude | 37000 |
| Route | NANXY2 GONLY/K0854F370 R588 PLK/K0804F270 W1 DAN A1 BUNTA/K0854S1100 G221 KAGUK KAGUK1A |
| Aircraft | A321/M-SDE3FGHIRWY/LB1 |
Departure
| Time | 2026-04-20 07:39 |
|---|---|
| Airport | Phnom Penh International Airport (VDPP) |
Arrival
| Time | 2026-04-20 09:02 |
|---|---|
| Airport | Sanya Phoenix International Airport (ZJSY) |
| Time | Latitude | Longitude | Altitude | Speed | Heading |
|---|---|---|---|---|---|
| 2026-04-20 07:13 | 11.55372 | 104.84749 | 64 ft | 0 kts | 317° |
| 2026-04-20 07:28 | 11.55370 | 104.84752 | 67 ft | 3 kts | 318° |
| 2026-04-20 07:28 | 11.55349 | 104.84767 | 60 ft | 4 kts | 340° |
| 2026-04-20 07:29 | 11.55345 | 104.84768 | 54 ft | 0 kts | 345° |
| 2026-04-20 07:29 | 11.55372 | 104.84749 | 67 ft | 0 kts | 317° |
| 2026-04-20 07:32 | 11.55363 | 104.84758 | 55 ft | 4 kts | 311° |
| 2026-04-20 07:32 | 11.55349 | 104.84780 | 59 ft | 4 kts | 283° |
| 2026-04-20 07:32 | 11.55350 | 104.84805 | 57 ft | 4 kts | 236° |
| 2026-04-20 07:32 | 11.55357 | 104.84814 | 57 ft | 1 kts | 226° |
| 2026-04-20 07:35 | 11.55356 | 104.84812 | 57 ft | 1 kts | 226° |
| 2026-04-20 07:35 | 11.55327 | 104.84781 | 60 ft | 10 kts | 227° |
| 2026-04-20 07:35 | 11.55265 | 104.84740 | 61 ft | 11 kts | 185° |
| 2026-04-20 07:35 | 11.55203 | 104.84784 | 53 ft | 12 kts | 135° |
| 2026-04-20 07:36 | 11.55145 | 104.84843 | 58 ft | 12 kts | 135° |
| 2026-04-20 07:36 | 11.55136 | 104.84917 | 56 ft | 12 kts | 58° |
| 2026-04-20 07:36 | 11.55196 | 104.84976 | 61 ft | 13 kts | 45° |
| 2026-04-20 07:36 | 11.55260 | 104.85045 | 57 ft | 14 kts | 46° |
| 2026-04-20 07:37 | 11.55336 | 104.85123 | 52 ft | 17 kts | 46° |
| 2026-04-20 07:37 | 11.55422 | 104.85214 | 54 ft | 18 kts | 45° |
| 2026-04-20 07:37 | 11.55512 | 104.85308 | 52 ft | 19 kts | 50° |
| 2026-04-20 07:37 | 11.55565 | 104.85400 | 58 ft | 7 kts | 40° |
| 2026-04-20 07:38 | 11.55590 | 104.85382 | 58 ft | 4 kts | 258° |
| 2026-04-20 07:38 | 11.55561 | 104.85361 | 60 ft | 6 kts | 213° |
| 2026-04-20 07:38 | 11.55544 | 104.85343 | 57 ft | 0 kts | 228° |
| 2026-04-20 07:38 | 11.55537 | 104.85336 | 59 ft | 14 kts | 228° |
| 2026-04-20 07:39 | 11.55279 | 104.85064 | 54 ft | 90 kts | 225° |
| 2026-04-20 07:39 | 11.54692 | 104.84453 | 55 ft | 149 kts | 225° |
| 2026-04-20 07:39 | 11.53891 | 104.83642 | 427 ft | 164 kts | 224° |
| 2026-04-20 07:39 | 11.53259 | 104.82678 | 1049 ft | 171 kts | 260° |
| 2026-04-20 07:40 | 11.53437 | 104.81461 | 1580 ft | 185 kts | 294° |
| 2026-04-20 07:40 | 11.54394 | 104.80526 | 1776 ft | 204 kts | 338° |
| 2026-04-20 07:40 | 11.55797 | 104.80050 | 1988 ft | 224 kts | 342° |
| 2026-04-20 07:40 | 11.57386 | 104.79536 | 2021 ft | 256 kts | 342° |
| 2026-04-20 07:41 | 11.59143 | 104.78967 | 2319 ft | 277 kts | 342° |
| 2026-04-20 07:41 | 11.60963 | 104.78366 | 3173 ft | 274 kts | 341° |
| 2026-04-20 07:41 | 11.62785 | 104.77747 | 3934 ft | 278 kts | 341° |
| 2026-04-20 07:41 | 11.64630 | 104.77110 | 4693 ft | 280 kts | 341° |
| 2026-04-20 07:42 | 11.66478 | 104.76469 | 5490 ft | 280 kts | 341° |
| 2026-04-20 07:42 | 11.68332 | 104.75838 | 6272 ft | 281 kts | 344° |
| 2026-04-20 07:42 | 11.70283 | 104.75679 | 6937 ft | 284 kts | 10° |
| 2026-04-20 07:42 | 11.72106 | 104.76432 | 7607 ft | 286 kts | 37° |
| 2026-04-20 07:43 | 11.73412 | 104.77956 | 8273 ft | 289 kts | 63° |
| 2026-04-20 07:43 | 11.74061 | 104.79898 | 8957 ft | 291 kts | 74° |
| 2026-04-20 07:43 | 11.74606 | 104.81890 | 9667 ft | 293 kts | 74° |
| 2026-04-20 07:43 | 11.75154 | 104.83902 | 10224 ft | 299 kts | 74° |
| 2026-04-20 07:44 | 11.75738 | 104.86021 | 10360 ft | 321 kts | 74° |
| 2026-04-20 07:44 | 11.76368 | 104.88290 | 10468 ft | 342 kts | 74° |
| 2026-04-20 07:44 | 11.77036 | 104.90682 | 10702 ft | 357 kts | 74° |
| 2026-04-20 07:44 | 11.77722 | 104.93141 | 11188 ft | 363 kts | 74° |
| 2026-04-20 07:45 | 11.78182 | 104.94791 | 11566 ft | 365 kts | 74° |
| 2026-04-20 07:45 | 11.78881 | 104.97288 | 12150 ft | 368 kts | 74° |
| 2026-04-20 07:45 | 11.79817 | 105.00632 | 12908 ft | 371 kts | 74° |
| 2026-04-20 07:45 | 11.80528 | 105.03172 | 13509 ft | 374 kts | 74° |
| 2026-04-20 07:46 | 11.81247 | 105.05739 | 14006 ft | 378 kts | 74° |
| 2026-04-20 07:46 | 11.81971 | 105.08324 | 14520 ft | 380 kts | 74° |
| 2026-04-20 07:46 | 11.82465 | 105.10084 | 14845 ft | 382 kts | 74° |
| 2026-04-20 07:46 | 11.83200 | 105.12706 | 15317 ft | 386 kts | 74° |
| 2026-04-20 07:47 | 11.84180 | 105.16212 | 15972 ft | 390 kts | 74° |
| 2026-04-20 07:47 | 11.84683 | 105.18017 | 16292 ft | 393 kts | 74° |
| 2026-04-20 07:47 | 11.85426 | 105.20676 | 16768 ft | 396 kts | 73° |
| 2026-04-20 07:47 | 11.86402 | 105.23309 | 17243 ft | 398 kts | 63° |
| 2026-04-20 07:48 | 11.87847 | 105.25728 | 17704 ft | 401 kts | 52° |
| 2026-04-20 07:48 | 11.89622 | 105.27943 | 18180 ft | 404 kts | 50° |
| 2026-04-20 07:48 | 11.91424 | 105.30159 | 18586 ft | 407 kts | 50° |
| 2026-04-20 07:48 | 11.93237 | 105.32395 | 19024 ft | 410 kts | 50° |
| 2026-04-20 07:49 | 11.95056 | 105.34644 | 19463 ft | 412 kts | 50° |
| 2026-04-20 07:49 | 11.96882 | 105.36909 | 19873 ft | 414 kts | 50° |
| 2026-04-20 07:49 | 11.98715 | 105.39187 | 20298 ft | 416 kts | 50° |
| 2026-04-20 07:49 | 12.00559 | 105.41480 | 20692 ft | 419 kts | 50° |
| 2026-04-20 07:50 | 12.02414 | 105.43784 | 21082 ft | 421 kts | 50° |
| 2026-04-20 07:50 | 12.04281 | 105.46102 | 21453 ft | 423 kts | 50° |
| 2026-04-20 07:50 | 12.06157 | 105.48433 | 21821 ft | 425 kts | 50° |
| 2026-04-20 07:50 | 12.08042 | 105.50773 | 22186 ft | 427 kts | 50° |
| 2026-04-20 07:51 | 12.09935 | 105.53120 | 22552 ft | 429 kts | 49° |
| 2026-04-20 07:51 | 12.11841 | 105.55482 | 22910 ft | 431 kts | 49° |
| 2026-04-20 07:51 | 12.13754 | 105.57854 | 23261 ft | 433 kts | 49° |
| 2026-04-20 07:51 | 12.15671 | 105.60237 | 23551 ft | 435 kts | 49° |
| 2026-04-20 07:52 | 12.17595 | 105.62636 | 23833 ft | 437 kts | 50° |
| 2026-04-20 07:52 | 12.19523 | 105.65043 | 24100 ft | 439 kts | 50° |
| 2026-04-20 07:52 | 12.21466 | 105.67466 | 24367 ft | 441 kts | 50° |
| 2026-04-20 07:52 | 12.23412 | 105.69889 | 24636 ft | 442 kts | 50° |
| 2026-04-20 07:53 | 12.25345 | 105.72294 | 24906 ft | 444 kts | 50° |
| 2026-04-20 07:53 | 12.27315 | 105.74746 | 25171 ft | 446 kts | 49° |
| 2026-04-20 07:53 | 12.29286 | 105.77200 | 25453 ft | 448 kts | 50° |
| 2026-04-20 07:53 | 12.31264 | 105.79667 | 25725 ft | 449 kts | 49° |
| 2026-04-20 07:54 | 12.33256 | 105.82148 | 25999 ft | 451 kts | 49° |
| 2026-04-20 07:54 | 12.35250 | 105.84631 | 26271 ft | 453 kts | 49° |
| 2026-04-20 07:54 | 12.37251 | 105.87125 | 26534 ft | 454 kts | 49° |
| 2026-04-20 07:54 | 12.39262 | 105.89636 | 26787 ft | 456 kts | 49° |
| 2026-04-20 07:55 | 12.41277 | 105.92150 | 27045 ft | 458 kts | 49° |
| 2026-04-20 07:55 | 12.43298 | 105.94674 | 27301 ft | 459 kts | 49° |
| 2026-04-20 07:55 | 12.45325 | 105.97210 | 27552 ft | 461 kts | 49° |
| 2026-04-20 07:55 | 12.47363 | 105.99759 | 27801 ft | 463 kts | 49° |
| 2026-04-20 07:56 | 12.49411 | 106.02315 | 28068 ft | 464 kts | 49° |
| 2026-04-20 07:56 | 12.51466 | 106.04873 | 28336 ft | 466 kts | 49° |
| 2026-04-20 07:56 | 12.53526 | 106.07441 | 28596 ft | 468 kts | 49° |
| 2026-04-20 07:56 | 12.55594 | 106.10025 | 28853 ft | 469 kts | 49° |
| 2026-04-20 07:57 | 12.57660 | 106.12611 | 29127 ft | 470 kts | 49° |
| 2026-04-20 07:57 | 12.59704 | 106.15170 | 29493 ft | 469 kts | 49° |
| 2026-04-20 07:57 | 12.61770 | 106.17757 | 29868 ft | 468 kts | 49° |
| 2026-04-20 07:57 | 12.63830 | 106.20333 | 30183 ft | 467 kts | 49° |
| 2026-04-20 07:58 | 12.65892 | 106.22913 | 30426 ft | 468 kts | 49° |
| 2026-04-20 07:58 | 12.67952 | 106.25497 | 30688 ft | 468 kts | 49° |
| 2026-04-20 07:58 | 12.70009 | 106.28076 | 30961 ft | 468 kts | 49° |
| 2026-04-20 07:58 | 12.72072 | 106.30660 | 31239 ft | 468 kts | 49° |
| 2026-04-20 07:59 | 12.74132 | 106.33235 | 31512 ft | 467 kts | 49° |
| 2026-04-20 07:59 | 12.76197 | 106.35820 | 31756 ft | 468 kts | 49° |
| 2026-04-20 07:59 | 12.78253 | 106.38398 | 31953 ft | 467 kts | 49° |
| 2026-04-20 07:59 | 12.80307 | 106.40977 | 32262 ft | 466 kts | 49° |
| 2026-04-20 08:00 | 12.82356 | 106.43553 | 32560 ft | 466 kts | 49° |
| 2026-04-20 08:00 | 12.84400 | 106.46120 | 32840 ft | 465 kts | 49° |
| 2026-04-20 08:00 | 12.86453 | 106.48692 | 33124 ft | 465 kts | 49° |
| 2026-04-20 08:00 | 12.88506 | 106.51268 | 33408 ft | 465 kts | 49° |
| 2026-04-20 08:01 | 12.90548 | 106.53836 | 33688 ft | 465 kts | 49° |
| 2026-04-20 08:01 | 12.92594 | 106.56410 | 33947 ft | 465 kts | 49° |
| 2026-04-20 08:01 | 12.94635 | 106.58976 | 34196 ft | 464 kts | 49° |
| 2026-04-20 08:01 | 12.96653 | 106.61517 | 34447 ft | 464 kts | 49° |
| 2026-04-20 08:02 | 12.98689 | 106.64081 | 34694 ft | 463 kts | 49° |
| 2026-04-20 08:02 | 13.00724 | 106.66642 | 34795 ft | 463 kts | 48° |
| 2026-04-20 08:02 | 13.04785 | 106.71753 | 34827 ft | 461 kts | 48° |
| 2026-04-20 08:03 | 13.08840 | 106.76854 | 34811 ft | 461 kts | 48° |
| 2026-04-20 08:03 | 13.12900 | 106.81969 | 34827 ft | 461 kts | 48° |
| 2026-04-20 08:04 | 13.16947 | 106.87071 | 34812 ft | 461 kts | 48° |
| 2026-04-20 08:04 | 13.20999 | 106.92189 | 34825 ft | 462 kts | 48° |
| 2026-04-20 08:05 | 13.25055 | 106.97301 | 34827 ft | 462 kts | 48° |
| 2026-04-20 08:05 | 13.29108 | 107.02415 | 34833 ft | 462 kts | 48° |
| 2026-04-20 08:06 | 13.33165 | 107.07544 | 34835 ft | 462 kts | 48° |
| 2026-04-20 08:06 | 13.37223 | 107.12681 | 34829 ft | 463 kts | 48° |
| 2026-04-20 08:07 | 13.41284 | 107.17803 | 34829 ft | 463 kts | 48° |
| 2026-04-20 08:07 | 13.45339 | 107.22938 | 34830 ft | 463 kts | 49° |
| 2026-04-20 08:08 | 13.49394 | 107.28084 | 34835 ft | 463 kts | 49° |
| 2026-04-20 08:08 | 13.53449 | 107.33224 | 34835 ft | 463 kts | 49° |
| 2026-04-20 08:09 | 13.57475 | 107.38337 | 34838 ft | 463 kts | 48° |
| 2026-04-20 08:09 | 13.61528 | 107.43481 | 34830 ft | 463 kts | 49° |
| 2026-04-20 08:10 | 13.65591 | 107.48634 | 34836 ft | 463 kts | 49° |
| 2026-04-20 08:10 | 13.69313 | 107.54053 | 34832 ft | 465 kts | 54° |
| 2026-04-20 08:11 | 13.72899 | 107.59593 | 34836 ft | 465 kts | 54° |
| 2026-04-20 08:11 | 13.76495 | 107.65138 | 34842 ft | 465 kts | 54° |
| 2026-04-20 08:12 | 13.80080 | 107.70681 | 34842 ft | 465 kts | 54° |
| 2026-04-20 08:12 | 13.83667 | 107.76221 | 34847 ft | 465 kts | 54° |
| 2026-04-20 08:13 | 13.87261 | 107.81764 | 34852 ft | 466 kts | 54° |
| 2026-04-20 08:13 | 13.90848 | 107.87318 | 34857 ft | 466 kts | 54° |
| 2026-04-20 08:14 | 13.94434 | 107.92878 | 34860 ft | 466 kts | 54° |
| 2026-04-20 08:14 | 13.98326 | 107.98178 | 34860 ft | 462 kts | 41° |
| 2026-04-20 08:15 | 14.00818 | 108.00247 | 34863 ft | 458 kts | 30° |
| 2026-04-20 08:15 | 14.03610 | 108.01792 | 34860 ft | 455 kts | 20° |
| 2026-04-20 08:15 | 14.06612 | 108.02778 | 34859 ft | 451 kts | 9° |
| 2026-04-20 08:15 | 14.09673 | 108.03199 | 34861 ft | 449 kts | 2° |
| 2026-04-20 08:16 | 14.15910 | 108.03715 | 34858 ft | 450 kts | 3° |
| 2026-04-20 08:16 | 14.22162 | 108.04259 | 34860 ft | 451 kts | 3° |
| 2026-04-20 08:17 | 14.28416 | 108.04799 | 34869 ft | 451 kts | 3° |
| 2026-04-20 08:17 | 14.34685 | 108.05320 | 34867 ft | 451 kts | 3° |
| 2026-04-20 08:18 | 14.40951 | 108.05845 | 34869 ft | 451 kts | 3° |
| 2026-04-20 08:18 | 14.47207 | 108.06372 | 34869 ft | 451 kts | 3° |
| 2026-04-20 08:19 | 14.53430 | 108.06899 | 34878 ft | 451 kts | 3° |
| 2026-04-20 08:19 | 14.59697 | 108.07431 | 34879 ft | 452 kts | 3° |
| 2026-04-20 08:20 | 14.65958 | 108.07959 | 34894 ft | 452 kts | 3° |
| 2026-04-20 08:20 | 14.72224 | 108.08496 | 34896 ft | 452 kts | 3° |
| 2026-04-20 08:21 | 14.78499 | 108.09023 | 34902 ft | 452 kts | 3° |
| 2026-04-20 08:21 | 14.84774 | 108.09556 | 34906 ft | 452 kts | 3° |
| 2026-04-20 08:22 | 14.91060 | 108.10091 | 34905 ft | 452 kts | 3° |
| 2026-04-20 08:22 | 14.97330 | 108.10620 | 34899 ft | 452 kts | 4° |
| 2026-04-20 08:23 | 15.03569 | 108.11143 | 34899 ft | 453 kts | 4° |
| 2026-04-20 08:23 | 15.09856 | 108.11676 | 34886 ft | 454 kts | 4° |
| 2026-04-20 08:24 | 15.16152 | 108.12209 | 34890 ft | 454 kts | 4° |
| 2026-04-20 08:24 | 15.22443 | 108.12743 | 34873 ft | 454 kts | 4° |
| 2026-04-20 08:25 | 15.28744 | 108.13283 | 34879 ft | 453 kts | 3° |
| 2026-04-20 08:25 | 15.35034 | 108.13822 | 34862 ft | 453 kts | 3° |
| 2026-04-20 08:26 | 15.41317 | 108.14357 | 34864 ft | 452 kts | 3° |
| 2026-04-20 08:26 | 15.47591 | 108.14896 | 34847 ft | 452 kts | 3° |
| 2026-04-20 08:27 | 15.52806 | 108.15341 | 34851 ft | 452 kts | 3° |
| 2026-04-20 08:27 | 15.60138 | 108.15962 | 34837 ft | 452 kts | 4° |
| 2026-04-20 08:28 | 15.65349 | 108.16406 | 34852 ft | 451 kts | 3° |
| 2026-04-20 08:28 | 15.71612 | 108.16932 | 34849 ft | 451 kts | 3° |
| 2026-04-20 08:29 | 15.77872 | 108.17468 | 34860 ft | 451 kts | 3° |
| 2026-04-20 08:29 | 15.84137 | 108.18007 | 34864 ft | 451 kts | 3° |
| 2026-04-20 08:30 | 15.90396 | 108.18543 | 34888 ft | 452 kts | 4° |
| 2026-04-20 08:30 | 15.96653 | 108.19083 | 34875 ft | 450 kts | 4° |
| 2026-04-20 08:31 | 16.02745 | 108.20520 | 34872 ft | 453 kts | 23° |
| 2026-04-20 08:31 | 16.05494 | 108.22136 | 34869 ft | 456 kts | 34° |
| 2026-04-20 08:31 | 16.07897 | 108.24289 | 34867 ft | 459 kts | 45° |
| 2026-04-20 08:32 | 16.11650 | 108.29679 | 34859 ft | 461 kts | 54° |
| 2026-04-20 08:32 | 16.15241 | 108.35229 | 34857 ft | 462 kts | 54° |
| 2026-04-20 08:33 | 16.20638 | 108.43560 | 34850 ft | 463 kts | 54° |
| 2026-04-20 08:34 | 16.24239 | 108.49136 | 34838 ft | 465 kts | 54° |
| 2026-04-20 08:34 | 16.27828 | 108.54695 | 34831 ft | 466 kts | 54° |
| 2026-04-20 08:35 | 16.31452 | 108.60313 | 34833 ft | 468 kts | 54° |
| 2026-04-20 08:35 | 16.35072 | 108.65937 | 34838 ft | 468 kts | 54° |
| 2026-04-20 08:36 | 16.38740 | 108.71534 | 34841 ft | 468 kts | 53° |
| 2026-04-20 08:36 | 16.42485 | 108.77089 | 34845 ft | 468 kts | 53° |
| 2026-04-20 08:37 | 16.46224 | 108.82649 | 34849 ft | 469 kts | 53° |
| 2026-04-20 08:37 | 16.49949 | 108.88236 | 34853 ft | 470 kts | 53° |
| 2026-04-20 08:38 | 16.53671 | 108.93833 | 34854 ft | 469 kts | 53° |
| 2026-04-20 08:38 | 16.57381 | 108.99430 | 34861 ft | 469 kts | 53° |
| 2026-04-20 08:39 | 16.61056 | 109.05074 | 34865 ft | 470 kts | 54° |
| 2026-04-20 08:39 | 16.64680 | 109.10691 | 34863 ft | 470 kts | 54° |
| 2026-04-20 08:40 | 16.68336 | 109.16344 | 34873 ft | 470 kts | 53° |
| 2026-04-20 08:40 | 16.71995 | 109.21983 | 34873 ft | 469 kts | 53° |
| 2026-04-20 08:41 | 16.75656 | 109.27628 | 34870 ft | 470 kts | 53° |
| 2026-04-20 08:41 | 16.79615 | 109.32997 | 34871 ft | 464 kts | 39° |
| 2026-04-20 08:41 | 16.82214 | 109.34945 | 34869 ft | 458 kts | 25° |
| 2026-04-20 08:42 | 16.85125 | 109.36257 | 34285 ft | 457 kts | 13° |
| 2026-04-20 08:42 | 16.88276 | 109.36806 | 33259 ft | 461 kts | 359° |
| 2026-04-20 08:42 | 16.91476 | 109.36543 | 32248 ft | 464 kts | 346° |
| 2026-04-20 08:42 | 16.94580 | 109.35615 | 31115 ft | 461 kts | 340° |
| 2026-04-20 08:43 | 16.97662 | 109.34558 | 29541 ft | 469 kts | 340° |
| 2026-04-20 08:43 | 17.00740 | 109.33495 | 28759 ft | 459 kts | 340° |
| 2026-04-20 08:43 | 17.03729 | 109.32461 | 28124 ft | 446 kts | 340° |
| 2026-04-20 08:43 | 17.06631 | 109.31456 | 27541 ft | 433 kts | 340° |
| 2026-04-20 08:44 | 17.09456 | 109.30477 | 26951 ft | 422 kts | 340° |
| 2026-04-20 08:44 | 17.12238 | 109.29511 | 26366 ft | 421 kts | 340° |
| 2026-04-20 08:44 | 17.15011 | 109.28548 | 25789 ft | 419 kts | 340° |
| 2026-04-20 08:44 | 17.17771 | 109.27592 | 25213 ft | 416 kts | 340° |
| 2026-04-20 08:45 | 17.20507 | 109.26644 | 24645 ft | 413 kts | 339° |
| 2026-04-20 08:45 | 17.23226 | 109.25701 | 24076 ft | 410 kts | 339° |
| 2026-04-20 08:45 | 17.25944 | 109.24755 | 23513 ft | 412 kts | 339° |
| 2026-04-20 08:45 | 17.28670 | 109.23808 | 22874 ft | 413 kts | 339° |
| 2026-04-20 08:46 | 17.31389 | 109.22864 | 22312 ft | 410 kts | 339° |
| 2026-04-20 08:46 | 17.34093 | 109.21924 | 21770 ft | 409 kts | 340° |
| 2026-04-20 08:46 | 17.36785 | 109.20988 | 21236 ft | 407 kts | 340° |
| 2026-04-20 08:46 | 17.39473 | 109.20054 | 20715 ft | 406 kts | 340° |
| 2026-04-20 08:47 | 17.42146 | 109.19127 | 20202 ft | 404 kts | 340° |
| 2026-04-20 08:47 | 17.44809 | 109.18203 | 19695 ft | 402 kts | 340° |
| 2026-04-20 08:47 | 17.47457 | 109.17283 | 19205 ft | 400 kts | 340° |
| 2026-04-20 08:47 | 17.50146 | 109.16558 | 18716 ft | 399 kts | 349° |
| 2026-04-20 08:48 | 17.52914 | 109.16347 | 18204 ft | 400 kts | 359° |
| 2026-04-20 08:48 | 17.55692 | 109.16379 | 17634 ft | 398 kts | 359° |
| 2026-04-20 08:48 | 17.58453 | 109.16411 | 17112 ft | 394 kts | 359° |
| 2026-04-20 08:48 | 17.61151 | 109.16441 | 16600 ft | 390 kts | 359° |
| 2026-04-20 08:49 | 17.63856 | 109.16473 | 16070 ft | 387 kts | 359° |
| 2026-04-20 08:49 | 17.66541 | 109.16503 | 15533 ft | 384 kts | 359° |
| 2026-04-20 08:49 | 17.69209 | 109.16522 | 15011 ft | 382 kts | 359° |
| 2026-04-20 08:49 | 17.71858 | 109.16523 | 14483 ft | 380 kts | 358° |
| 2026-04-20 08:50 | 17.74501 | 109.16516 | 13940 ft | 378 kts | 358° |
| 2026-04-20 08:50 | 17.77125 | 109.16505 | 13374 ft | 376 kts | 358° |
| 2026-04-20 08:50 | 17.79733 | 109.16493 | 12824 ft | 373 kts | 358° |
| 2026-04-20 08:50 | 17.82314 | 109.16484 | 12287 ft | 370 kts | 359° |
| 2026-04-20 08:51 | 17.84876 | 109.16479 | 11756 ft | 366 kts | 359° |
| 2026-04-20 08:51 | 17.87417 | 109.16476 | 11224 ft | 364 kts | 359° |
| 2026-04-20 08:51 | 17.89943 | 109.16439 | 10703 ft | 361 kts | 354° |
| 2026-04-20 08:51 | 17.92366 | 109.15978 | 10510 ft | 346 kts | 342° |
| 2026-04-20 08:52 | 17.94580 | 109.15161 | 10385 ft | 326 kts | 338° |
| 2026-04-20 08:52 | 17.96654 | 109.14360 | 10153 ft | 312 kts | 338° |
| 2026-04-20 08:52 | 17.98674 | 109.13583 | 9918 ft | 305 kts | 338° |
| 2026-04-20 08:52 | 18.00656 | 109.12821 | 9823 ft | 303 kts | 338° |
| 2026-04-20 08:53 | 18.02635 | 109.12058 | 9702 ft | 302 kts | 338° |
| 2026-04-20 08:53 | 18.04584 | 109.11306 | 9569 ft | 301 kts | 338° |
| 2026-04-20 08:53 | 18.06555 | 109.10544 | 9146 ft | 303 kts | 338° |
| 2026-04-20 08:53 | 18.08539 | 109.09776 | 8721 ft | 304 kts | 338° |
| 2026-04-20 08:54 | 18.10527 | 109.09003 | 8369 ft | 301 kts | 338° |
| 2026-04-20 08:54 | 18.12477 | 109.08249 | 7871 ft | 297 kts | 337° |
| 2026-04-20 08:54 | 18.14404 | 109.07504 | 7284 ft | 292 kts | 337° |
| 2026-04-20 08:54 | 18.16345 | 109.06909 | 6802 ft | 291 kts | 349° |
| 2026-04-20 08:55 | 18.18354 | 109.06617 | 6310 ft | 294 kts | 351° |
| 2026-04-20 08:55 | 18.20395 | 109.06329 | 5877 ft | 296 kts | 353° |
| 2026-04-20 08:55 | 18.22376 | 109.06427 | 5735 ft | 278 kts | 14° |
| 2026-04-20 08:55 | 18.24083 | 109.07207 | 5465 ft | 261 kts | 36° |
| 2026-04-20 08:56 | 18.25389 | 109.08537 | 5243 ft | 275 kts | 57° |
| 2026-04-20 08:56 | 18.26210 | 109.10385 | 4974 ft | 280 kts | 79° |
| 2026-04-20 08:56 | 18.26496 | 109.12353 | 4843 ft | 261 kts | 84° |
| 2026-04-20 08:56 | 18.26749 | 109.14291 | 4626 ft | 273 kts | 85° |
| 2026-04-20 08:57 | 18.27012 | 109.16271 | 4286 ft | 273 kts | 84° |
| 2026-04-20 08:57 | 18.27272 | 109.18236 | 3927 ft | 265 kts | 84° |
| 2026-04-20 08:57 | 18.27519 | 109.20096 | 3603 ft | 249 kts | 85° |
| 2026-04-20 08:57 | 18.27750 | 109.21840 | 3314 ft | 231 kts | 85° |
| 2026-04-20 08:58 | 18.27962 | 109.23451 | 3023 ft | 215 kts | 85° |
| 2026-04-20 08:58 | 18.28158 | 109.24939 | 2771 ft | 196 kts | 85° |
| 2026-04-20 08:58 | 18.28335 | 109.26285 | 2522 ft | 181 kts | 85° |
| 2026-04-20 08:58 | 18.28506 | 109.27590 | 2293 ft | 178 kts | 86° |
| 2026-04-20 08:59 | 18.28673 | 109.28864 | 2063 ft | 172 kts | 85° |
| 2026-04-20 08:59 | 18.28833 | 109.30088 | 1840 ft | 167 kts | 85° |
| 2026-04-20 08:59 | 18.28991 | 109.31286 | 1631 ft | 162 kts | 87° |
| 2026-04-20 08:59 | 18.29140 | 109.32415 | 1446 ft | 150 kts | 85° |
| 2026-04-20 09:00 | 18.29278 | 109.33474 | 1239 ft | 143 kts | 86° |
| 2026-04-20 09:00 | 18.29411 | 109.34493 | 1051 ft | 139 kts | 87° |
| 2026-04-20 09:00 | 18.29543 | 109.35509 | 866 ft | 144 kts | 86° |
| 2026-04-20 09:00 | 18.29679 | 109.36546 | 691 ft | 143 kts | 84° |
| 2026-04-20 09:01 | 18.29814 | 109.37574 | 504 ft | 141 kts | 84° |
| 2026-04-20 09:01 | 18.29947 | 109.38592 | 312 ft | 140 kts | 83° |
| 2026-04-20 09:01 | 18.30083 | 109.39612 | 122 ft | 141 kts | 84° |
| 2026-04-20 09:01 | 18.30205 | 109.40557 | 73 ft | 105 kts | 82° |
| 2026-04-20 09:02 | 18.30267 | 109.41047 | 82 ft | 42 kts | 82° |
| 2026-04-20 09:02 | 18.30297 | 109.41262 | 86 ft | 9 kts | 77° |
| 2026-04-20 09:02 | 18.30334 | 109.41313 | 87 ft | 8 kts | 10° |
| 2026-04-20 09:02 | 18.30401 | 109.41305 | 88 ft | 11 kts | 351° |
| 2026-04-20 09:03 | 18.30462 | 109.41296 | 86 ft | 9 kts | 352° |
| 2026-04-20 09:03 | 18.30533 | 109.41287 | 89 ft | 11 kts | 353° |
| 2026-04-20 09:03 | 18.30615 | 109.41275 | 88 ft | 13 kts | 352° |
| 2026-04-20 09:03 | 18.30710 | 109.41262 | 86 ft | 15 kts | 351° |
| 2026-04-20 09:04 | 18.30780 | 109.41195 | 84 ft | 16 kts | 276° |
| 2026-04-20 09:04 | 18.30774 | 109.41091 | 85 ft | 8 kts | 276° |
| 2026-04-20 09:04 | 18.30801 | 109.41059 | 89 ft | 4 kts | 345° |
| 2026-04-20 09:04 | 18.30835 | 109.41053 | 87 ft | 6 kts | 352° |
| 2026-04-20 09:05 | 18.30845 | 109.41052 | 86 ft | 2 kts | 352° |
| 2026-04-20 09:05 | 18.30857 | 109.41050 | 86 ft | 0 kts | 351° |